Flight Track Log - Related Links

Times and Time Zones

All times are in EDT time to prevent confusion due to time zone crossing. See the VHT11 flight status page for this flight to view local times or setup timezone preferences in your user account.

Time Position Orientation Groundspeed Altitude Reporting Facility
EDT Latitude Longitude Course Direction KTS MPH feet Rate Location/Type
Mon 09:07:41 PM 33.9178 -118.4975 254° West 203 234 4,300  Level Los Angeles Center
Mon 09:08:43 PM 33.9014 -118.4739 130° Southeast 230 265 8,400 3,823 Climbing Los Angeles Center
Mon 09:09:45 PM 33.9458 -118.4189 46° Northeast 230 265 12,200 3,387 Climbing Los Angeles Center
Mon 09:10:47 PM 33.9800 -118.3494 59° Northeast 240 276 15,400 2,341 Climbing Los Angeles Center
Mon 09:11:48 PM 34.0281 -118.2656 55° Northeast 302 348 17,000 1,707 Climbing Los Angeles Center
Mon 09:12:00 PM 34.2271 -117.8791 59° Northeast  Level FlightAware Approximate
Mon 09:12:50 PM 34.0894 -118.1583 55° Northeast 384 442 18,900  Level Los Angeles Center
Mon 09:13:52 PM 34.1556 -118.0433 55° Northeast 413 475 21,900 2,927 Climbing Los Angeles Center
Mon 09:14:53 PM 34.2208 -117.9242 56° Northeast 422 486 24,900 2,976 Climbing Los Angeles Center
Mon 09:15:55 PM 34.2875 -117.8061 56° Northeast 425 489 28,000 1,935 Climbing Los Angeles Center
Mon 09:16:57 PM 34.3542 -117.6864 56° Northeast 429 494 28,900 484 Climbing Los Angeles Center
Mon 09:17:59 PM 34.4328 -117.5458 56° Northeast 442 509 29,000 49 Climbing Los Angeles Center
Mon 09:19:00 PM 34.5017 -117.4214 56° Northeast 446 513 29,000  Level Los Angeles Center
Mon 09:20:02 PM 34.5706 -117.2956 56° Northeast 451 519 29,000 -48 Level Los Angeles Center
Mon 09:21:04 PM 34.6397 -117.1694 56° Northeast 452 520 28,900 -49 Descending Los Angeles Center
Mon 09:22:05 PM 34.7231 -117.0169 56° Northeast 456 525 28,900  Level Los Angeles Center
Mon 09:23:07 PM 34.7928 -116.8897 56° Northeast 455 524 28,900  Level Los Angeles Center
Mon 09:24:09 PM 34.8628 -116.7631 56° Northeast 454 522 28,900  Level Los Angeles Center
Mon 09:25:10 PM 34.9303 -116.6344 57° Northeast 453 521 28,900 -1,171 Level Los Angeles Center
Mon 09:26:12 PM 35.0108 -116.5142 51° Northeast 461 531 26,500 -2,323 Descending Los Angeles Center
Mon 09:27:14 PM 35.0992 -116.4050 45° Northeast 456 525 24,100 -1,220 Descending Los Angeles Center
Mon 09:28:15 PM 35.1806 -116.3044 45° Northeast 429 494 24,000 -49 Descending Los Angeles Center
Mon 09:29:17 PM 35.2761 -116.1847 46° Northeast 412 474 24,000  Level Los Angeles Center
Mon 09:30:19 PM 35.3531 -116.0853 46° Northeast 405 466 24,000 -1,200 Level Los Angeles Center
Mon 09:31:32 PM 35.4336 -115.9858 45° Northeast 410 472 21,300 -3,438 Descending Los Angeles Center
Mon 09:31:55 PM 35.4831 -115.9239 46° Northeast 423 487 18,500 -5,524 Descending Los Angeles Center
Mon 09:32:35 PM 35.5361 -115.8547 47° Northeast 415 478 15,500 -4,691 Descending Los Angeles Center
Mon 09:32:50 PM 35.5583 -115.8314 41° Northeast 416 479 14,200 -2,459 Descending Los Angeles Center
Mon 09:33:36 PM 35.6128 -115.7567 48° Northeast 405 466 13,000 -1,180 Descending Los Angeles Center
Mon 09:33:51 PM 35.6289 -115.7375 44° Northeast 368 423 13,000  Level Los Angeles Center
Mon 09:34:38 PM 35.6747 -115.6778 47° Northeast 335 386 13,000  Level Los Angeles Center
Mon 09:35:52 PM 35.7569 -115.5800 44° Northeast 309 356 13,000  Level Los Angeles Center
Mon 09:36:53 PM 35.8475 -115.5694 North 325 374 13,000  Level Los Angeles Center
Mon 09:37:44 PM 35.9208 -115.5650 North 315 362 13,000 -429 Level Los Angeles Center
Mon 09:38:45 PM 35.9892 -115.5144 31° Northeast 313 360 12,200 -927 Descending Los Angeles Center
Mon 09:39:47 PM 36.0175 -115.4156 70° East 309 356 11,100 -919 Descending Los Angeles Center
Mon 09:40:49 PM 36.0286 -115.3203 82° East 290 334 10,300 -968 Descending Los Angeles Center
Mon 09:41:51 PM 36.0203 -115.2256 96° East 282 325 9,100 -1,070 Descending Los Angeles Center
Mon 09:42:58 PM 36.0117 -115.1097 95° East 252 290 8,000 -829 Descending Los Angeles Center
Mon 09:43:54 PM 36.0272 -115.0514 72° East 232 267 7,400 -1,119 Descending Los Angeles Center
Mon 09:44:56 PM 36.0831 -115.0478 North 208 239 5,800 -1,500 Descending Los Angeles Center
Mon 09:45:58 PM 36.1294 -115.0739 336° Northwest 214 246 4,300 -1,268 Descending Los Angeles Center
Mon 09:46:59 PM 36.1400 -115.1286 283° West 184 212 3,200 -927 Descending Los Angeles Center
Mon 09:48:01 PM 36.1067 -115.1511 209° Southwest 150 173 2,400 -774 Descending Los Angeles Center
Mon 09:50:00 PM 36.0801 -115.1523 270° West  Level Estimated

Login

Don't have an account? Register now (free) for customized features, flight alerts, and more!